createdAt,value
2018-11-28T00:00:22.821Z,86.10
2018-11-28T00:02:51.322Z,86.28
2018-11-28T00:05:19.901Z,86.65
2018-11-28T00:07:48.446Z,86.92
2018-11-28T00:10:18.063Z,87.08
2018-11-28T00:12:46.518Z,86.75
2018-11-28T00:15:16.166Z,86.46
2018-11-28T00:17:44.646Z,86.84
2018-11-28T00:20:15.418Z,87.26
2018-11-28T00:22:44.365Z,86.54
2018-11-28T00:25:13.550Z,86.20
2018-11-28T00:27:42.057Z,85.57
2018-11-28T00:30:18.703Z,85.66
2018-11-28T00:32:47.136Z,86.13
2018-11-28T00:35:16.810Z,86.55
2018-11-28T00:37:45.380Z,86.44
2018-11-28T00:40:15.972Z,86.49
2018-11-28T00:42:44.425Z,86.80
2018-11-28T00:45:15.592Z,86.78
2018-11-28T00:47:44.102Z,86.65
2018-11-28T00:50:14.573Z,87.40
2018-11-28T00:52:43.057Z,87.91
2018-11-28T00:55:14.497Z,87.31
2018-11-28T00:57:42.974Z,88.49
2018-11-28T01:00:19.585Z,88.88
2018-11-28T01:02:48.744Z,88.55
2018-11-28T01:05:17.350Z,87.84
2018-11-28T01:07:46.793Z,87.83
2018-11-28T01:10:16.641Z,87.91
2018-11-28T01:12:45.255Z,87.74
2018-11-28T01:15:14.851Z,87.63
2018-11-28T01:17:43.399Z,86.86
2018-11-28T01:20:13.517Z,86.90
2018-11-28T01:22:42.023Z,87.15
2018-11-28T01:25:14.505Z,86.28
2018-11-28T01:27:42.988Z,86.61
2018-11-28T01:30:14.924Z,86.51
2018-11-28T01:32:43.815Z,87.32
2018-11-28T01:35:14.278Z,86.94
2018-11-28T01:37:42.915Z,86.27
2018-11-28T01:40:15.122Z,87.06
2018-11-28T01:42:43.647Z,86.15
2018-11-28T01:45:13.377Z,87.36
2018-11-28T01:47:42.185Z,87.43
2018-11-28T01:50:12.534Z,87.29
2018-11-28T01:52:41.033Z,87.38
2018-11-28T01:55:11.498Z,87.75
2018-11-28T01:57:40.071Z,88.41
2018-11-28T02:00:11.032Z,88.73
2018-11-28T02:02:39.543Z,88.73
2018-11-28T02:05:09.890Z,89.08
2018-11-28T02:07:38.393Z,89.14
2018-11-28T02:10:11.980Z,89.03
2018-11-28T02:12:40.853Z,89.74
2018-11-28T02:15:10.925Z,89.84
2018-11-28T02:17:39.401Z,89.74
2018-11-28T02:20:11.182Z,89.46
2018-11-28T02:22:39.722Z,88.93
2018-11-28T02:25:09.530Z,90.12
2018-11-28T02:27:38.054Z,89.76
2018-11-28T02:30:10.557Z,90.33
2018-11-28T02:32:39.244Z,90.34
2018-11-28T02:35:10.224Z,90.83
2018-11-28T02:37:39.267Z,90.83
2018-11-28T02:40:09.582Z,90.56
2018-11-28T02:42:38.122Z,89.87
2018-11-28T02:45:13.155Z,89.81
2018-11-28T02:47:41.615Z,89.23
2018-11-28T02:50:11.100Z,89.41
2018-11-28T02:52:39.710Z,89.73
2018-11-28T02:55:13.173Z,89.73
2018-11-28T02:57:42.554Z,89.41
2018-11-28T03:00:15.802Z,89.00
2018-11-28T03:02:44.371Z,88.99
2018-11-28T03:05:13.330Z,88.70
2018-11-28T03:07:41.830Z,88.27
2018-11-28T03:10:14.710Z,88.81
2018-11-28T03:12:43.263Z,88.96
2018-11-28T03:15:14.751Z,88.60
2018-11-28T03:17:43.349Z,89.30
2018-11-28T03:20:12.589Z,88.54
2018-11-28T03:22:41.086Z,88.59
2018-11-28T03:25:10.886Z,88.17
2018-11-28T03:27:39.352Z,88.63
2018-11-28T03:30:14.262Z,87.50
2018-11-28T03:32:42.740Z,88.66
2018-11-28T03:35:13.544Z,88.30
2018-11-28T03:37:42.079Z,87.68
2018-11-28T03:40:11.549Z,87.05
2018-11-28T03:42:40.038Z,87.91
2018-11-28T03:45:12.568Z,88.32
2018-11-28T03:47:41.424Z,88.90
2018-11-28T03:50:11.250Z,89.29
2018-11-28T03:52:40.287Z,88.86
2018-11-28T03:55:11.732Z,88.91
2018-11-28T03:57:40.267Z,87.54
2018-11-28T04:00:14.001Z,88.84
2018-11-28T04:02:42.443Z,89.09
2018-11-28T04:05:11.498Z,89.24
2018-11-28T04:07:39.951Z,88.69
2018-11-28T04:10:09.870Z,89.03
2018-11-28T04:12:38.662Z,87.77
2018-11-28T04:15:18.448Z,89.15
2018-11-28T04:17:46.906Z,89.20
2018-11-28T04:20:17.697Z,88.96
2018-11-28T04:22:46.259Z,89.27
2018-11-28T04:25:15.585Z,88.62
2018-11-28T04:27:44.074Z,88.03
2018-11-28T04:30:23.390Z,88.79
2018-11-28T04:32:52.815Z,88.23
2018-11-28T04:35:21.419Z,87.75
2018-11-28T04:37:49.955Z,87.29
2018-11-28T04:40:21.134Z,88.84
2018-11-28T04:42:50.016Z,88.20
2018-11-28T04:45:20.357Z,87.67
2018-11-28T04:47:48.943Z,88.15
2018-11-28T04:50:17.466Z,88.47
2018-11-28T04:52:46.033Z,88.82
2018-11-28T04:55:17.084Z,88.13
2018-11-28T04:57:45.643Z,88.42
2018-11-28T05:00:17.666Z,89.22
2018-11-28T05:02:46.149Z,89.88
2018-11-28T05:05:15.121Z,90.64
2018-11-28T05:07:45.381Z,89.84
2018-11-28T05:10:22.663Z,89.99
2018-11-28T05:12:51.612Z,90.77
2018-11-28T05:15:21.218Z,90.13
2018-11-28T05:17:51.721Z,90.03
2018-11-28T05:20:31.103Z,90.56
2018-11-28T05:22:59.576Z,90.67
2018-11-28T05:25:28.409Z,90.00
2018-11-28T05:27:57.966Z,91.27
2018-11-28T05:30:28.055Z,90.77
2018-11-28T05:32:56.578Z,91.44
2018-11-28T05:35:30.015Z,91.98
2018-11-28T05:37:58.513Z,91.84
2018-11-28T05:40:28.035Z,92.02
2018-11-28T05:42:56.970Z,90.67
2018-11-28T05:45:26.146Z,90.92
2018-11-28T05:47:54.880Z,90.83
2018-11-28T05:50:23.894Z,91.39
2018-11-28T05:52:52.403Z,91.37
2018-11-28T05:55:21.954Z,90.49
2018-11-28T05:57:50.541Z,90.81
2018-11-28T06:00:23.913Z,90.68
2018-11-28T06:02:52.393Z,91.08
2018-11-28T06:05:20.924Z,89.58
2018-11-28T06:07:49.470Z,89.46
2018-11-28T06:10:17.949Z,90.88
2018-11-28T06:12:46.451Z,91.38
2018-11-28T06:15:14.986Z,89.95
2018-11-28T06:17:43.487Z,90.00
2018-11-28T06:20:13.219Z,89.99
2018-11-28T06:22:41.678Z,89.55
2018-11-28T06:25:15.842Z,90.14
2018-11-28T06:27:40.302Z,89.55
2018-11-28T06:30:11.370Z,89.91
2018-11-28T06:32:39.917Z,89.47
2018-11-28T06:35:09.330Z,89.71
2018-11-28T06:37:37.830Z,89.98
2018-11-28T06:40:11.918Z,90.40
2018-11-28T06:42:40.470Z,90.33
2018-11-28T06:45:11.286Z,89.87
2018-11-28T06:47:39.776Z,89.97
2018-11-28T06:50:13.504Z,89.19
2018-11-28T06:52:42.297Z,89.83
2018-11-28T06:55:14.058Z,89.41
2018-11-28T06:57:42.547Z,88.79
2018-11-28T07:00:14.226Z,89.82
2018-11-28T07:02:42.762Z,89.29
2018-11-28T07:05:12.069Z,89.46
2018-11-28T07:07:40.640Z,88.36
2018-11-28T07:10:12.860Z,88.12
2018-11-28T07:12:41.376Z,89.54
2018-11-28T07:15:13.377Z,90.17
2018-11-28T07:17:42.518Z,88.74
2018-11-28T07:20:12.933Z,87.89
2018-11-28T07:22:41.611Z,87.59
2018-11-28T07:25:14.358Z,88.05
2018-11-28T07:27:45.406Z,87.58
2018-11-28T07:30:12.844Z,88.09
2018-11-28T07:32:41.377Z,87.45
2018-11-28T07:35:10.980Z,87.89
2018-11-28T07:37:39.797Z,88.39
2018-11-28T07:40:17.416Z,88.68
2018-11-28T07:42:58.786Z,88.18
2018-11-28T07:45:27.987Z,86.80
2018-11-28T07:47:56.834Z,87.26
2018-11-28T07:50:26.289Z,86.56
2018-11-28T07:52:55.122Z,86.00
2018-11-28T07:55:23.649Z,87.35
2018-11-28T07:57:52.549Z,86.82
2018-11-28T08:00:21.115Z,87.07
2018-11-28T08:02:49.647Z,85.73
2018-11-28T08:05:18.135Z,86.57
2018-11-28T08:07:46.771Z,86.44
2018-11-28T08:10:23.526Z,84.91
2018-11-28T08:13:01.918Z,85.27
2018-11-28T08:15:30.396Z,84.02
2018-11-28T08:17:59.468Z,84.59
2018-11-28T08:20:28.469Z,84.91
2018-11-28T08:22:56.955Z,85.28
2018-11-28T08:25:28.025Z,85.59
2018-11-28T08:27:54.829Z,85.91
2018-11-28T08:30:24.412Z,85.08
2018-11-28T08:32:53.528Z,85.16
2018-11-28T08:35:21.950Z,84.46
2018-11-28T08:37:50.517Z,84.95
2018-11-28T08:40:22.626Z,84.35
2018-11-28T08:42:51.178Z,84.41
2018-11-28T08:45:20.936Z,85.27
2018-11-28T08:47:52.065Z,84.15
2018-11-28T08:50:30.657Z,84.69
2018-11-28T08:52:59.083Z,85.99
2018-11-28T08:55:27.600Z,84.19
2018-11-28T08:57:56.160Z,83.59
2018-11-28T09:00:26.016Z,83.83
2018-11-28T09:02:55.810Z,83.79
2018-11-28T09:05:24.261Z,85.44
2018-11-28T09:07:52.719Z,83.97
2018-11-28T09:10:21.336Z,82.61
2018-11-28T09:12:50.680Z,83.06
2018-11-28T09:15:21.406Z,83.58
2018-11-28T09:17:50.513Z,83.38
2018-11-28T09:20:19.155Z,84.79
2018-11-28T09:22:47.756Z,84.68
2018-11-28T09:25:18.806Z,83.88
2018-11-28T09:27:50.460Z,84.63
2018-11-28T09:30:20.432Z,84.59
2018-11-28T09:32:49.809Z,84.07
2018-11-28T09:35:18.677Z,81.97
2018-11-28T09:37:47.173Z,82.43
2018-11-28T09:40:18.578Z,84.63
2018-11-28T09:42:47.544Z,82.59
2018-11-28T09:45:17.066Z,83.42
2018-11-28T09:47:45.711Z,83.29
2018-11-28T09:50:17.889Z,82.77
2018-11-28T09:52:46.402Z,83.48
2018-11-28T09:55:16.270Z,82.09
2018-11-28T09:57:44.819Z,81.22
2018-11-28T10:00:21.395Z,82.22
2018-11-28T10:02:50.762Z,81.87
2018-11-28T10:05:23.261Z,81.92
2018-11-28T10:07:51.786Z,81.26
2018-11-28T10:10:21.137Z,80.98
2018-11-28T10:12:49.769Z,80.68
2018-11-28T10:15:20.013Z,81.61
2018-11-28T10:17:48.505Z,82.02
2018-11-28T10:20:17.809Z,80.67
2018-11-28T10:22:46.961Z,80.70
2018-11-28T10:25:17.492Z,81.46
2018-11-28T10:27:47.205Z,80.92
2018-11-28T10:30:19.201Z,80.22
2018-11-28T10:32:48.230Z,79.91
2018-11-28T10:35:16.758Z,79.62
2018-11-28T10:37:45.223Z,78.98
2018-11-28T10:40:16.128Z,78.57
2018-11-28T10:42:44.839Z,78.12
2018-11-28T10:45:14.742Z,78.93
2018-11-28T10:47:43.241Z,77.77
2018-11-28T10:50:14.854Z,77.94
2018-11-28T10:52:43.660Z,75.68
2018-11-28T10:55:15.505Z,76.13
2018-11-28T10:57:44.630Z,76.86
2018-11-28T11:00:25.361Z,76.26
2018-11-28T11:02:59.050Z,77.61
2018-11-28T11:05:33.018Z,77.51
2018-11-28T11:08:06.929Z,76.95
2018-11-28T11:10:41.594Z,76.14
2018-11-28T11:13:15.803Z,75.25
2018-11-28T11:15:48.471Z,74.97
2018-11-28T11:18:17.793Z,75.92
2018-11-28T11:20:46.979Z,76.74
2018-11-28T11:23:15.591Z,76.01
2018-11-28T11:25:44.403Z,76.42
2018-11-28T11:28:12.905Z,76.55
2018-11-28T11:30:42.445Z,78.48
2018-11-28T11:33:11.077Z,78.28
2018-11-28T11:35:39.606Z,77.62
2018-11-28T11:38:08.156Z,77.74
2018-11-28T11:40:36.629Z,78.67
2018-11-28T11:43:05.558Z,77.87
2018-11-28T11:45:34.772Z,78.37
2018-11-28T11:48:03.261Z,77.97
2018-11-28T11:50:31.830Z,78.02
2018-11-28T11:53:00.410Z,76.39
2018-11-28T11:55:28.891Z,78.18
2018-11-28T11:57:58.922Z,76.68
2018-11-28T12:00:27.743Z,77.45
2018-11-28T12:03:08.861Z,78.32
2018-11-28T12:05:37.464Z,77.87
2018-11-28T12:08:06.726Z,77.38
2018-11-28T12:10:36.164Z,77.99
2018-11-28T12:13:04.782Z,79.11
2018-11-28T12:15:33.328Z,77.74
2018-11-28T12:18:01.916Z,77.70
2018-11-28T12:20:35.338Z,77.56
2018-11-28T12:23:03.950Z,76.57
2018-11-28T12:25:32.531Z,77.02
2018-11-28T12:28:00.974Z,75.02
2018-11-28T12:30:29.425Z,75.80
2018-11-28T12:32:58.566Z,75.78
2018-11-28T12:35:27.363Z,76.16
2018-11-28T12:37:55.822Z,74.15
2018-11-28T12:40:24.270Z,75.87
2018-11-28T12:42:53.434Z,76.17
2018-11-28T12:45:22.096Z,77.29
2018-11-28T12:47:50.819Z,76.98
2018-11-28T12:50:22.207Z,76.20
2018-11-28T12:52:51.264Z,77.57
2018-11-28T12:55:20.397Z,77.52
2018-11-28T12:57:49.126Z,76.38
2018-11-28T13:00:20.444Z,76.96
2018-11-28T13:02:48.953Z,77.60
2018-11-28T13:05:20.296Z,78.61
2018-11-28T13:07:48.841Z,77.70
2018-11-28T13:10:27.029Z,78.34
2018-11-28T13:12:56.181Z,78.18
2018-11-28T13:15:26.331Z,78.84
2018-11-28T13:17:54.890Z,78.01
2018-11-28T13:20:24.802Z,78.68
2018-11-28T13:22:54.640Z,79.10
2018-11-28T13:25:28.057Z,77.53
2018-11-28T13:27:56.797Z,77.94
2018-11-28T13:30:26.211Z,78.97
2018-11-28T13:32:55.468Z,78.84
2018-11-28T13:35:25.957Z,78.74
2018-11-28T13:38:04.681Z,77.96
2018-11-28T13:40:33.522Z,77.77
2018-11-28T13:43:02.653Z,78.82
2018-11-28T13:45:33.116Z,79.22
2018-11-28T13:48:01.668Z,78.51
2018-11-28T13:50:30.215Z,78.55
2018-11-28T13:53:00.022Z,79.06
2018-11-28T13:55:39.780Z,78.28
2018-11-28T13:58:03.021Z,79.43
2018-11-28T14:00:32.677Z,79.24
2018-11-28T14:03:01.201Z,79.49
2018-11-28T14:05:29.666Z,80.50
2018-11-28T14:07:58.455Z,80.36
2018-11-28T14:10:27.206Z,80.96
2018-11-28T14:12:56.339Z,81.44
2018-11-28T14:15:24.968Z,81.53
2018-11-28T14:18:24.206Z,81.43
2018-11-28T14:20:52.697Z,81.04
2018-11-28T14:23:21.419Z,80.95
2018-11-28T14:25:49.916Z,81.95
2018-11-28T14:28:18.468Z,82.17
2018-11-28T14:30:47.607Z,82.59
2018-11-28T14:33:16.848Z,81.64
2018-11-28T14:35:45.384Z,81.92
2018-11-28T14:38:13.940Z,82.84
2018-11-28T14:40:42.434Z,80.79
2018-11-28T14:43:10.922Z,83.59
2018-11-28T14:45:39.417Z,83.33
2018-11-28T14:48:09.733Z,83.51
2018-11-28T14:50:38.193Z,84.54
2018-11-28T14:53:06.720Z,85.62
2018-11-28T14:55:37.036Z,84.67
2018-11-28T14:58:05.845Z,84.96
2018-11-28T15:00:34.422Z,84.04
2018-11-28T15:03:09.986Z,83.50
2018-11-28T15:07:49.061Z,84.84
2018-11-28T15:10:17.871Z,84.41
2018-11-28T15:12:46.392Z,84.33
2018-11-28T15:15:15.786Z,84.65
2018-11-28T15:17:44.287Z,85.10
2018-11-28T15:20:12.726Z,84.85
2018-11-28T15:22:41.333Z,85.56
2018-11-28T15:25:10.698Z,84.95
2018-11-28T15:27:39.168Z,85.65
2018-11-28T15:30:08.847Z,84.40
2018-11-28T15:32:37.397Z,84.59
2018-11-28T15:35:06.061Z,85.70
2018-11-28T15:37:34.565Z,85.05
2018-11-28T15:40:03.006Z,84.58
2018-11-28T15:42:31.509Z,85.46
2018-11-28T15:45:00.081Z,85.54
2018-11-28T15:47:29.481Z,86.05
2018-11-28T15:49:57.906Z,85.04
2018-11-28T15:52:26.362Z,86.23
2018-11-28T15:54:54.850Z,85.48
2018-11-28T15:57:23.357Z,85.95
2018-11-28T15:59:52.564Z,85.16
2018-11-28T16:02:21.081Z,85.19
2018-11-28T16:04:49.555Z,85.05
2018-11-28T16:07:18.060Z,85.15
2018-11-28T16:09:51.746Z,84.22
2018-11-28T16:12:20.182Z,84.83
2018-11-28T16:14:48.627Z,85.07
2018-11-28T16:17:17.094Z,84.39
2018-11-28T16:19:45.546Z,83.87
2018-11-28T16:22:14.037Z,84.01
2018-11-28T16:24:43.261Z,83.66
2018-11-28T16:27:12.473Z,84.63
2018-11-28T16:29:40.935Z,83.53
2018-11-28T16:32:09.545Z,84.37
2018-11-28T16:34:38.291Z,84.02
2018-11-28T16:37:07.030Z,84.45
2018-11-28T16:39:37.456Z,83.67
2018-11-28T16:42:06.303Z,85.10
2018-11-28T16:44:34.966Z,84.74
2018-11-28T16:47:03.413Z,86.45
2018-11-28T16:49:31.884Z,86.56
2018-11-28T16:52:00.321Z,87.29
2018-11-28T16:54:28.799Z,86.95
2018-11-28T16:56:57.663Z,87.70
2018-11-28T16:59:30.673Z,87.09
2018-11-28T17:01:54.879Z,87.60
2018-11-28T17:04:23.306Z,88.13
2018-11-28T17:06:51.762Z,88.46
2018-11-28T17:09:20.287Z,88.59
2018-11-28T17:11:49.702Z,88.24
2018-11-28T17:14:18.188Z,89.30
2018-11-28T17:16:46.718Z,90.36
2018-11-28T17:19:15.274Z,89.60
2018-11-28T17:21:43.718Z,89.02
2018-11-28T17:24:12.417Z,88.87
2018-11-28T17:26:40.863Z,89.33
2018-11-28T17:29:09.446Z,89.56
2018-11-28T17:31:37.929Z,89.82
2018-11-28T17:34:06.713Z,91.03
2018-11-28T17:36:35.241Z,90.81
2018-11-28T17:39:07.226Z,90.42
2018-11-28T17:41:36.290Z,90.24
2018-11-28T17:44:04.801Z,89.62
2018-11-28T17:46:33.242Z,88.85
2018-11-28T17:49:02.403Z,88.91
2018-11-28T17:51:30.918Z,89.72
2018-11-28T17:53:59.402Z,91.43
2018-11-28T17:56:27.878Z,90.96
2018-11-28T17:58:57.181Z,90.56
2018-11-28T18:01:25.692Z,90.78
2018-11-28T18:03:54.302Z,91.86
2018-11-28T18:06:22.760Z,90.63
2018-11-28T18:08:51.358Z,91.70
2018-11-28T18:11:19.795Z,93.08
2018-11-28T18:13:48.249Z,92.14
2018-11-28T18:16:17.691Z,91.98
2018-11-28T18:18:46.180Z,92.83
2018-11-28T18:21:14.670Z,92.83
2018-11-28T18:23:43.178Z,92.97
2018-11-28T18:26:13.346Z,93.01
2018-11-28T18:28:42.262Z,93.26
2018-11-28T18:31:10.705Z,93.12
2018-11-28T18:33:39.167Z,93.81
2018-11-28T18:36:07.650Z,93.09
2018-11-28T18:38:36.116Z,93.62
2018-11-28T18:41:04.622Z,93.61
2018-11-28T18:43:33.175Z,93.25
2018-11-28T18:46:02.020Z,93.08
2018-11-28T18:48:30.280Z,92.90
2018-11-28T18:50:58.760Z,92.77
2018-11-28T18:53:27.230Z,92.75
2018-11-28T18:55:55.768Z,91.92
2018-11-28T18:58:24.262Z,92.38
2018-11-28T19:00:52.772Z,93.12
2018-11-28T19:03:21.259Z,93.27
2018-11-28T19:05:49.812Z,92.90
2018-11-28T19:08:18.286Z,93.35
2018-11-28T19:10:46.830Z,92.99
2018-11-28T19:13:15.398Z,93.21
2018-11-28T19:15:44.452Z,93.03
2018-11-28T19:18:15.611Z,92.61
2018-11-28T19:20:44.156Z,93.50
2018-11-28T19:23:12.748Z,94.17
2018-11-28T19:25:42.019Z,93.95
2018-11-28T19:28:10.551Z,94.96
2018-11-28T19:30:41.097Z,94.24
2018-11-28T19:33:12.610Z,94.60
2018-11-28T19:35:41.165Z,94.89
2018-11-28T19:38:11.417Z,95.75
2018-11-28T19:40:43.312Z,95.82
2018-11-28T19:43:11.893Z,96.13
2018-11-28T19:45:41.559Z,96.71
2018-11-28T19:48:10.277Z,97.55
2018-11-28T19:50:38.828Z,96.65
2018-11-28T19:53:08.589Z,97.45
2018-11-28T19:55:37.155Z,96.12
2018-11-28T19:58:05.926Z,97.40
2018-11-28T20:00:34.989Z,95.33
2018-11-28T20:03:03.576Z,94.84
2018-11-28T20:05:32.196Z,96.25
2018-11-28T20:08:00.784Z,96.39
2018-11-28T20:10:30.159Z,96.18
2018-11-28T20:12:58.762Z,95.29
2018-11-28T20:15:28.684Z,95.66
2018-11-28T20:17:57.569Z,95.13
2018-11-28T20:20:26.068Z,95.47
2018-11-28T20:22:54.833Z,94.44
2018-11-28T20:25:24.556Z,94.86
2018-11-28T20:27:54.606Z,95.15
2018-11-28T20:30:33.550Z,94.80
2018-11-28T20:33:02.227Z,94.04
2018-11-28T20:35:31.197Z,93.79
2018-11-28T20:37:59.712Z,95.01
2018-11-28T20:40:28.197Z,95.99
2018-11-28T20:42:57.578Z,95.54
2018-11-28T20:45:26.358Z,94.99
2018-11-28T20:47:54.925Z,95.04
2018-11-28T20:50:34.334Z,96.04
2018-11-28T20:53:12.429Z,97.08
2018-11-28T20:55:41.091Z,96.36
2018-11-28T20:58:10.281Z,96.79
2018-11-28T21:00:38.732Z,96.43
2018-11-28T21:03:07.880Z,96.48
2018-11-28T21:05:37.411Z,96.82
2018-11-28T21:08:07.359Z,97.23
2018-11-28T21:10:36.790Z,97.13
2018-11-28T21:13:06.414Z,97.00
2018-11-28T21:15:34.890Z,97.99
2018-11-28T21:18:03.493Z,97.88
2018-11-28T21:20:32.099Z,97.34
2018-11-28T21:23:02.781Z,96.98
2018-11-28T21:25:31.299Z,97.76
2018-11-28T21:27:59.785Z,96.98
2018-11-28T21:30:28.278Z,97.34
2018-11-28T21:32:56.851Z,97.91
2018-11-28T21:35:33.153Z,97.85
2018-11-28T21:38:02.333Z,97.97
2018-11-28T21:40:30.813Z,98.23
2018-11-28T21:42:59.417Z,98.57
2018-11-28T21:45:28.854Z,98.58
2018-11-28T21:47:57.425Z,98.64
2018-11-28T21:50:25.909Z,98.27
2018-11-28T21:52:54.396Z,97.75
2018-11-28T21:55:24.243Z,96.70
2018-11-28T21:57:52.899Z,97.53
2018-11-28T22:00:23.543Z,97.70
2018-11-28T22:02:52.213Z,97.05
2018-11-28T22:05:20.941Z,96.73
2018-11-28T22:07:49.647Z,96.91
2018-11-28T22:10:19.083Z,96.65
2018-11-28T22:12:47.753Z,96.42
2018-11-28T22:15:17.113Z,96.91
2018-11-28T22:17:48.606Z,97.55
2018-11-28T22:20:17.755Z,97.33
2018-11-28T22:22:46.282Z,97.45
2018-11-28T22:25:17.714Z,98.24
2018-11-28T22:27:46.789Z,98.61
2018-11-28T22:30:21.253Z,98.98
2018-11-28T22:32:49.842Z,98.43
2018-11-28T22:35:18.921Z,98.25
2018-11-28T22:37:48.832Z,98.10
2018-11-28T22:40:20.711Z,98.34
2018-11-28T22:42:50.116Z,97.23
2018-11-28T22:45:21.236Z,97.96
2018-11-28T22:47:50.293Z,98.58
2018-11-28T22:50:19.017Z,98.07
2018-11-28T22:52:47.552Z,97.36
2018-11-28T22:55:16.623Z,97.94
2018-11-28T22:57:45.140Z,97.59
2018-11-28T23:00:16.725Z,97.25
2018-11-28T23:02:58.526Z,96.78
2018-11-28T23:05:29.412Z,97.53
2018-11-28T23:08:00.358Z,96.92
2018-11-28T23:10:29.051Z,97.88
2018-11-28T23:12:57.677Z,97.84
2018-11-28T23:15:26.190Z,97.22
2018-11-28T23:17:55.316Z,97.21
2018-11-28T23:20:23.274Z,97.00
2018-11-28T23:22:51.714Z,98.15
2018-11-28T23:25:20.217Z,97.81
2018-11-28T23:27:48.705Z,97.78
2018-11-28T23:30:18.071Z,97.76
2018-11-28T23:32:47.384Z,97.31
2018-11-28T23:35:15.861Z,97.72
2018-11-28T23:37:45.965Z,97.46
2018-11-28T23:40:16.350Z,97.47
2018-11-28T23:42:44.798Z,96.90
2018-11-28T23:45:13.986Z,96.85
2018-11-28T23:47:42.633Z,96.36
2018-11-28T23:50:15.062Z,96.58
2018-11-28T23:52:44.094Z,96.29
2018-11-28T23:55:28.674Z,96.88
2018-11-28T23:57:57.234Z,96.07
